Time;durP1;ratioP1;P1;durP2;ratioP2;P2;SDS_P1;SDS_P2;PMS_P1;PMS_P2;Temp;Humidity;BMP_temperature;BMP_pressure;BME280_temperature;BME280_humidity;BME280_pressure;Samples;Min_cycle;Max_cycle;Signal;HPM_P1;HPM_P2
2023/03/30 00:00:49;;;;;;;67.68;33.70;;;9.70;99.90;;;;;;5023979;28;20044;-70
2023/03/30 00:03:18;;;;;;;63.90;33.13;;;9.70;99.90;;;;;;5023453;28;20109;-72
2023/03/30 00:05:45;;;;;;;58.78;29.42;;;9.70;99.90;;;;;;5022071;28;20038;-71
2023/03/30 00:08:17;;;;;;;64.63;32.63;;;9.70;99.90;;;;;;5020693;28;20069;-71
2023/03/30 00:10:44;;;;;;;65.53;34.25;;;9.70;99.90;;;;;;5023379;28;20084;-69
2023/03/30 00:13:11;;;;;;;70.90;33.47;;;9.70;99.90;;;;;;5019721;28;20030;-71
2023/03/30 00:15:37;;;;;;;66.63;33.78;;;9.70;99.90;;;;;;5018960;28;20021;-70
2023/03/30 00:18:03;;;;;;;61.15;31.80;;;9.70;99.90;;;;;;5031496;28;20032;-70
2023/03/30 00:20:31;;;;;;;59.40;33.15;;;9.70;99.90;;;;;;5043898;28;20033;-72
2023/03/30 00:22:57;;;;;;;62.15;31.55;;;9.70;99.90;;;;;;5043470;28;20042;-70
2023/03/30 00:25:23;;;;;;;57.92;30.48;;;9.70;99.90;;;;;;5043468;28;20056;-70
2023/03/30 00:27:49;;;;;;;63.63;31.67;;;9.70;99.90;;;;;;5042188;28;20029;-70
2023/03/30 00:30:16;;;;;;;65.10;31.85;;;9.70;99.90;;;;;;5042870;28;20097;-70
2023/03/30 00:32:43;;;;;;;59.20;29.92;;;9.70;99.90;;;;;;5044494;28;20055;-70
2023/03/30 00:35:09;;;;;;;57.88;30.95;;;9.70;99.90;;;;;;5042200;28;20044;-71
2023/03/30 00:37:37;;;;;;;65.53;32.55;;;9.70;99.90;;;;;;5043154;28;20029;-70
2023/03/30 00:40:06;;;;;;;61.00;30.92;;;9.70;99.90;;;;;;5044048;28;20017;-71
2023/03/30 00:42:34;;;;;;;63.53;32.65;;;9.70;99.90;;;;;;5043297;28;20041;-71
2023/03/30 00:45:24;;;;;;;61.53;31.48;;;9.70;99.90;;;;;;5043209;28;20044;-71
2023/03/30 00:48:02;;;;;;;61.65;32.08;;;9.70;99.90;;;;;;5043378;28;20052;-70
2023/03/30 00:50:33;;;;;;;68.10;33.20;;;9.70;99.90;;;;;;5042770;28;20033;-69
2023/03/30 00:53:02;;;;;;;61.30;31.75;;;9.70;99.90;;;;;;5045246;28;20021;-69
2023/03/30 00:55:30;;;;;;;63.72;32.00;;;9.60;99.90;;;;;;5046995;28;20033;-69
2023/03/30 00:57:56;;;;;;;61.60;29.40;;;9.70;99.90;;;;;;5047424;28;20030;-69
2023/03/30 01:00:22;;;;;;;61.55;30.33;;;9.70;99.90;;;;;;5046025;28;20474;-70
2023/03/30 01:02:57;;;;;;;60.20;31.35;;;9.70;99.90;;;;;;5047026;28;20048;-70
2023/03/30 01:05:24;;;;;;;61.47;32.58;;;9.70;99.90;;;;;;5046245;28;20117;-69
2023/03/30 01:07:50;;;;;;;63.63;31.85;;;9.70;99.90;;;;;;5046865;28;20053;-71
2023/03/30 01:10:16;;;;;;;61.70;30.90;;;9.70;99.90;;;;;;5045983;28;20160;-70
2023/03/30 01:12:42;;;;;;;64.68;33.97;;;9.70;99.90;;;;;;5046943;28;20068;-70
2023/03/30 01:15:09;;;;;;;64.28;32.13;;;9.70;99.90;;;;;;5047267;28;20036;-69
2023/03/30 01:17:56;;;;;;;60.25;32.17;;;9.70;99.90;;;;;;5047344;28;20026;-71
2023/03/30 01:20:51;;;;;;;62.40;30.38;;;9.70;99.90;;;;;;5047141;28;20026;-70
2023/03/30 01:23:26;;;;;;;65.00;31.58;;;9.70;99.90;;;;;;5035913;28;20045;-69
2023/03/30 01:26:17;;;;;;;59.95;30.10;;;9.70;99.90;;;;;;5046242;28;20028;-69
2023/03/30 01:28:52;;;;;;;54.08;28.42;;;9.60;99.90;;;;;;5046626;28;20021;-70
2023/03/30 01:31:39;;;;;;;59.70;28.90;;;9.60;99.90;;;;;;5046153;28;20052;-71
2023/03/30 01:34:32;;;;;;;53.50;27.95;;;9.60;99.90;;;;;;5046236;28;20021;-69
2023/03/30 01:36:58;;;;;;;56.55;29.45;;;9.50;99.90;;;;;;5045145;28;20053;-69
2023/03/30 01:39:43;;;;;;;59.38;28.35;;;9.50;99.90;;;;;;5046707;28;20021;-69
2023/03/30 01:42:30;;;;;;;55.83;27.70;;;9.50;99.90;;;;;;5046606;28;20069;-69
2023/03/30 01:45:13;;;;;;;60.20;28.17;;;9.40;99.90;;;;;;5046619;28;20030;-70
2023/03/30 01:47:56;;;;;;;58.58;28.10;;;9.40;99.90;;;;;;5047056;28;20017;-70
2023/03/30 01:50:45;;;;;;;62.97;28.02;;;9.40;99.90;;;;;;5046240;28;20070;-71
2023/03/30 01:53:22;;;;;;;49.10;27.73;;;9.30;99.90;;;;;;5028559;28;20022;-72
2023/03/30 01:55:55;;;;;;;62.25;30.58;;;9.30;99.90;;;;;;5025512;28;20045;-71
2023/03/30 01:58:38;;;;;;;59.28;29.02;;;9.30;99.90;;;;;;5024300;28;20014;-70
2023/03/30 02:01:06;;;;;;;57.40;27.85;;;9.30;99.90;;;;;;5027217;28;20118;-69
2023/03/30 02:03:36;;;;;;;58.47;29.55;;;9.30;99.90;;;;;;5020383;28;20038;-71
2023/03/30 02:06:13;;;;;;;55.17;28.23;;;9.30;99.90;;;;;;5022460;28;20029;-70
2023/03/30 02:08:41;;;;;;;55.03;29.52;;;9.30;99.90;;;;;;5024838;28;20038;-70
2023/03/30 02:11:07;;;;;;;53.28;27.98;;;9.30;99.90;;;;;;5023797;28;20112;-70
2023/03/30 02:13:35;;;;;;;57.80;29.35;;;9.30;99.90;;;;;;5025091;28;20022;-70
2023/03/30 02:16:08;;;;;;;59.75;28.45;;;9.30;99.90;;;;;;5018438;28;20018;-70
2023/03/30 02:18:37;;;;;;;54.60;27.08;;;9.30;99.90;;;;;;5023710;28;20030;-70
2023/03/30 02:21:04;;;;;;;57.45;27.63;;;9.30;99.90;;;;;;5022450;28;20022;-69
2023/03/30 02:23:34;;;;;;;50.35;26.83;;;9.30;99.90;;;;;;5023569;28;20036;-69
2023/03/30 02:26:00;;;;;;;57.65;28.83;;;9.30;99.90;;;;;;5023935;28;20022;-71
2023/03/30 02:28:25;;;;;;;54.13;27.33;;;9.20;99.90;;;;;;5022002;28;20026;-70
2023/03/30 02:30:51;;;;;;;54.70;27.63;;;9.20;99.90;;;;;;5024191;28;20022;-70
2023/03/30 02:33:31;;;;;;;52.22;27.60;;;9.20;99.90;;;;;;5031920;28;20083;-70
2023/03/30 02:36:18;;;;;;;54.20;27.75;;;9.20;99.90;;;;;;5033392;28;20037;-70
2023/03/30 02:39:05;;;;;;;50.45;26.80;;;9.20;99.90;;;;;;5025598;28;20026;-70
2023/03/30 02:41:55;;;;;;;47.42;26.35;;;9.30;99.90;;;;;;5023786;28;20042;-70
2023/03/30 02:44:46;;;;;;;51.88;26.60;;;9.30;99.90;;;;;;5025621;28;20105;-70
2023/03/30 02:47:40;;;;;;;45.75;25.13;;;9.30;99.90;;;;;;5025897;28;20422;-70
2023/03/30 02:50:21;;;;;;;53.60;25.77;;;9.30;99.90;;;;;;5025135;28;20085;-70
2023/03/30 02:53:22;;;;;;;48.10;25.25;;;9.30;99.90;;;;;;5025057;28;20030;-72
2023/03/30 02:56:12;;;;;;;53.47;26.60;;;9.30;99.90;;;;;;5040005;28;20478;-69
2023/03/30 02:58:46;;;;;;;45.97;24.10;;;9.30;99.90;;;;;;5016569;28;20435;-71
2023/03/30 03:01:17;;;;;;;50.13;25.73;;;9.40;99.90;;;;;;5025485;28;20114;-69
2023/03/30 03:03:46;;;;;;;46.25;25.10;;;9.40;99.90;;;;;;5025254;28;20030;-71
2023/03/30 03:06:14;;;;;;;43.72;24.70;;;9.40;99.90;;;;;;5025142;28;20030;-71
2023/03/30 03:08:42;;;;;;;50.03;23.98;;;9.40;99.90;;;;;;5025264;28;20050;-71
2023/03/30 03:11:09;;;;;;;44.38;22.98;;;9.40;99.90;;;;;;5025352;28;20026;-71
2023/03/30 03:13:36;;;;;;;38.33;21.98;;;9.40;99.90;;;;;;5025441;28;20029;-71
2023/03/30 03:16:06;;;;;;;47.00;23.75;;;9.40;99.90;;;;;;5024086;28;20052;-71
2023/03/30 03:18:33;;;;;;;42.65;23.02;;;9.40;99.90;;;;;;5024669;28;20034;-71
2023/03/30 03:21:00;;;;;;;42.22;22.40;;;9.40;99.90;;;;;;5023249;28;20018;-70
2023/03/30 03:23:26;;;;;;;42.17;21.75;;;9.40;99.90;;;;;;5024460;28;20124;-71
2023/03/30 03:25:56;;;;;;;42.13;22.33;;;9.40;99.90;;;;;;5024370;28;20041;-72
2023/03/30 03:28:22;;;;;;;41.03;21.80;;;9.40;99.90;;;;;;5024989;28;20038;-70
2023/03/30 03:30:48;;;;;;;40.67;21.35;;;9.40;99.90;;;;;;5024934;28;20030;-71
2023/03/30 03:33:13;;;;;;;38.63;21.63;;;9.40;99.90;;;;;;5023769;28;20455;-71
2023/03/30 03:35:39;;;;;;;38.67;20.55;;;9.40;99.90;;;;;;5025218;28;20025;-70
2023/03/30 03:38:06;;;;;;;38.30;20.17;;;9.40;99.90;;;;;;5024688;28;20030;-70
2023/03/30 03:40:32;;;;;;;39.17;20.67;;;9.40;99.90;;;;;;5024682;28;20030;-71
2023/03/30 03:42:57;;;;;;;37.67;19.35;;;9.40;99.90;;;;;;5024817;28;20049;-70
2023/03/30 03:45:23;;;;;;;41.85;18.60;;;9.40;99.90;;;;;;5024286;28;20033;-69
2023/03/30 03:47:52;;;;;;;39.35;19.70;;;9.40;99.90;;;;;;5023194;28;20030;-72
2023/03/30 03:50:18;;;;;;;42.55;20.00;;;9.40;99.90;;;;;;5023416;28;20052;-71
2023/03/30 03:52:44;;;;;;;34.97;18.25;;;9.40;99.90;;;;;;5024620;28;20053;-73
2023/03/30 03:55:10;;;;;;;34.67;19.15;;;9.40;99.90;;;;;;5024233;28;20022;-72
2023/03/30 03:57:36;;;;;;;37.42;19.98;;;9.40;99.90;;;;;;5024142;28;20038;-71
2023/03/30 04:00:03;;;;;;;43.75;20.27;;;9.40;99.90;;;;;;5024233;28;20432;-71
2023/03/30 04:02:29;;;;;;;39.95;19.27;;;9.40;99.90;;;;;;5024573;28;20152;-70
2023/03/30 04:04:56;;;;;;;38.97;19.23;;;9.40;99.90;;;;;;5023320;28;20026;-70
2023/03/30 04:07:24;;;;;;;38.70;18.92;;;9.40;99.90;;;;;;5024274;28;20041;-70
2023/03/30 04:09:50;;;;;;;38.92;18.77;;;9.40;99.90;;;;;;5024598;28;20545;-71
2023/03/30 04:12:15;;;;;;;34.45;20.23;;;9.40;99.90;;;;;;5022742;28;20034;-71
2023/03/30 04:14:41;;;;;;;38.47;19.23;;;9.40;99.90;;;;;;5022634;28;20026;-72
2023/03/30 04:17:07;;;;;;;38.63;20.25;;;9.40;99.90;;;;;;5022858;28;20030;-71
2023/03/30 04:19:32;;;;;;;42.42;20.38;;;9.40;99.90;;;;;;5023977;28;20138;-71
2023/03/30 04:21:58;;;;;;;35.13;18.70;;;9.40;99.90;;;;;;5022545;28;20046;-71
2023/03/30 04:24:28;;;;;;;36.13;20.00;;;9.40;99.90;;;;;;5023809;28;20033;-71
2023/03/30 04:26:56;;;;;;;34.83;19.20;;;9.40;99.90;;;;;;5024199;28;20026;-70
2023/03/30 04:29:22;;;;;;;38.25;19.25;;;9.40;99.90;;;;;;5027854;28;20029;-71
2023/03/30 04:31:49;;;;;;;35.97;18.58;;;9.40;99.90;;;;;;5026666;28;20029;-69
2023/03/30 04:34:20;;;;;;;35.03;18.45;;;9.50;99.90;;;;;;5034802;28;20025;-72
2023/03/30 04:36:46;;;;;;;33.88;18.40;;;9.50;99.90;;;;;;5014140;28;20026;-71
2023/03/30 04:39:12;;;;;;;41.00;19.15;;;9.50;99.90;;;;;;5008587;28;20468;-70
2023/03/30 04:41:40;;;;;;;32.60;17.63;;;9.50;99.90;;;;;;5008284;28;20046;-70
2023/03/30 04:44:08;;;;;;;32.92;16.77;;;9.60;99.90;;;;;;5008530;28;20025;-70
2023/03/30 04:46:35;;;;;;;28.67;17.23;;;9.60;99.90;;;;;;5008526;28;20382;-70
2023/03/30 04:49:01;;;;;;;36.47;16.75;;;9.60;99.90;;;;;;5008305;28;20037;-71
2023/03/30 04:51:27;;;;;;;28.73;16.45;;;9.60;99.90;;;;;;5019718;28;20035;-70
2023/03/30 04:53:53;;;;;;;29.00;16.17;;;9.60;99.90;;;;;;5017731;28;20093;-70
2023/03/30 04:56:18;;;;;;;34.03;15.75;;;9.60;99.90;;;;;;5021345;28;20030;-71
2023/03/30 04:58:44;;;;;;;27.73;15.05;;;9.70;99.90;;;;;;5015494;28;20065;-71
2023/03/30 05:01:09;;;;;;;26.48;15.20;;;9.70;99.90;;;;;;5025146;28;20030;-73
2023/03/30 05:03:35;;;;;;;24.40;14.80;;;9.70;99.90;;;;;;5027003;28;20109;-71
2023/03/30 05:06:01;;;;;;;25.83;13.52;;;9.80;99.90;;;;;;5025947;28;20493;-71
2023/03/30 05:08:28;;;;;;;24.13;14.40;;;9.80;99.90;;;;;;5023498;28;20518;-72
2023/03/30 05:10:53;;;;;;;28.73;14.85;;;9.80;99.90;;;;;;5014814;28;20040;-71
2023/03/30 05:13:19;;;;;;;36.13;14.45;;;9.80;99.90;;;;;;5018283;28;20026;-71
2023/03/30 05:15:51;;;;;;;23.02;14.32;;;9.90;99.90;;;;;;5027528;28;20076;-72
2023/03/30 05:18:16;;;;;;;21.70;12.32;;;9.90;99.90;;;;;;5025637;28;20040;-71
2023/03/30 05:20:42;;;;;;;24.42;13.05;;;10.00;99.90;;;;;;5013929;28;20090;-72
2023/03/30 05:23:08;;;;;;;26.80;12.82;;;10.00;99.90;;;;;;5014577;28;20053;-71
2023/03/30 05:25:33;;;;;;;22.58;12.52;;;10.00;99.90;;;;;;5020923;28;20040;-70
2023/03/30 05:27:59;;;;;;;22.60;12.52;;;10.10;99.90;;;;;;5029217;28;20030;-70
2023/03/30 05:30:24;;;;;;;21.10;10.90;;;10.10;99.90;;;;;;5024531;28;20033;-71
2023/03/30 05:32:50;;;;;;;25.55;11.10;;;10.10;99.90;;;;;;5027065;28;20034;-71
2023/03/30 05:35:16;;;;;;;22.20;11.75;;;10.20;99.90;;;;;;5026419;28;20089;-71
2023/03/30 05:37:41;;;;;;;23.38;11.77;;;10.30;99.90;;;;;;5026893;28;20032;-71
2023/03/30 05:40:17;;;;;;;30.00;13.57;;;10.30;99.90;;;;;;5026851;28;20037;-70
2023/03/30 05:42:43;;;;;;;22.15;12.05;;;10.30;99.90;;;;;;5018311;28;20033;-72
2023/03/30 05:45:10;;;;;;;32.60;17.90;;;10.40;99.90;;;;;;5026427;28;20049;-70
2023/03/30 05:47:35;;;;;;;24.92;11.45;;;10.40;99.90;;;;;;5026211;28;20084;-71
2023/03/30 05:50:01;;;;;;;24.20;10.02;;;10.50;99.90;;;;;;5026607;28;20475;-69
2023/03/30 05:52:27;;;;;;;20.55;9.32;;;10.60;99.90;;;;;;5026727;28;20026;-70
2023/03/30 05:54:52;;;;;;;24.75;9.43;;;10.70;99.90;;;;;;5026614;28;20105;-70
2023/03/30 05:57:18;;;;;;;17.50;8.10;;;10.80;99.90;;;;;;5026753;28;20022;-70
2023/03/30 05:59:44;;;;;;;13.85;7.35;;;10.90;99.90;;;;;;5026665;28;20057;-70
2023/03/30 06:02:11;;;;;;;19.88;9.02;;;10.90;99.90;;;;;;5026858;28;20062;-70
2023/03/30 06:04:37;;;;;;;15.07;6.63;;;11.00;99.90;;;;;;5025253;28;20045;-70
2023/03/30 06:07:03;;;;;;;14.77;7.03;;;11.10;99.90;;;;;;5026246;28;20026;-70
2023/03/30 06:09:30;;;;;;;17.35;6.78;;;11.20;99.90;;;;;;5026533;28;20487;-70
2023/03/30 06:11:56;;;;;;;24.13;7.30;;;11.20;99.90;;;;;;5026461;28;20022;-70
2023/03/30 06:14:21;;;;;;;18.08;6.80;;;11.20;99.90;;;;;;5026240;28;20045;-71
2023/03/30 06:16:47;;;;;;;14.70;6.00;;;11.30;99.90;;;;;;5026477;28;20026;-70
2023/03/30 06:19:13;;;;;;;16.45;6.68;;;11.30;99.90;;;;;;5025198;28;20030;-70
2023/03/30 06:21:39;;;;;;;14.77;7.00;;;11.30;99.90;;;;;;5026393;28;20372;-69
2023/03/30 06:24:05;;;;;;;16.05;6.75;;;11.40;99.90;;;;;;5026140;28;20494;-70
2023/03/30 06:26:31;;;;;;;15.45;6.53;;;11.40;99.90;;;;;;5025976;28;20025;-70
2023/03/30 06:28:56;;;;;;;16.42;7.63;;;11.40;99.90;;;;;;5026154;28;20485;-71
2023/03/30 06:31:22;;;;;;;24.13;7.85;;;11.40;99.90;;;;;;5024540;28;20105;-69
2023/03/30 06:33:49;;;;;;;25.95;8.27;;;11.50;99.90;;;;;;5024653;28;20041;-70
2023/03/30 06:36:14;;;;;;;18.35;6.13;;;11.40;99.90;;;;;;5026122;28;20034;-70
2023/03/30 06:38:42;;;;;;;12.52;6.45;;;11.40;99.90;;;;;;5026160;28;20030;-69
2023/03/30 06:41:10;;;;;;;19.50;7.05;;;11.40;99.90;;;;;;5016842;28;20033;-70
2023/03/30 06:43:36;;;;;;;11.80;6.53;;;11.50;99.90;;;;;;5017683;28;20045;-71
2023/03/30 06:46:02;;;;;;;16.15;6.78;;;11.50;99.90;;;;;;5021203;28;20030;-70
2023/03/30 06:48:28;;;;;;;17.02;6.35;;;11.60;99.90;;;;;;5006313;28;20030;-70
2023/03/30 06:50:54;;;;;;;13.30;5.65;;;11.60;99.90;;;;;;5008460;28;20049;-70
2023/03/30 06:53:21;;;;;;;12.27;6.22;;;11.70;99.90;;;;;;5022721;28;20033;-69
2023/03/30 06:55:52;;;;;;;15.20;5.90;;;11.70;99.90;;;;;;5016989;28;20039;-71
2023/03/30 06:58:18;;;;;;;16.52;5.80;;;11.80;99.90;;;;;;5017729;28;20046;-70
2023/03/30 07:00:44;;;;;;;9.77;5.30;;;11.90;99.90;;;;;;5017376;28;20490;-70
2023/03/30 07:03:09;;;;;;;14.43;6.13;;;12.00;99.90;;;;;;5016760;28;20042;-70
2023/03/30 07:05:39;;;;;;;12.13;5.50;;;12.00;99.90;;;;;;5024097;28;20594;-70
2023/03/30 07:08:06;;;;;;;13.13;5.53;;;12.10;99.90;;;;;;5025182;28;20049;-69
2023/03/30 07:10:32;;;;;;;14.70;5.35;;;12.10;99.90;;;;;;5020686;28;20038;-69
2023/03/30 07:12:57;;;;;;;14.43;5.68;;;12.20;99.90;;;;;;5005407;28;20073;-69
2023/03/30 07:15:23;;;;;;;14.57;5.80;;;12.20;99.90;;;;;;5008471;28;20085;-69
2023/03/30 07:17:49;;;;;;;14.43;5.40;;;12.20;99.90;;;;;;5021331;28;20533;-69
2023/03/30 07:20:15;;;;;;;12.57;5.38;;;12.20;99.90;;;;;;5025232;28;20048;-69
2023/03/30 07:22:41;;;;;;;15.40;5.32;;;12.20;99.90;;;;;;5006380;28;20038;-71
2023/03/30 07:25:08;;;;;;;19.48;5.22;;;12.20;99.90;;;;;;5018938;28;20037;-69
2023/03/30 07:27:35;;;;;;;13.13;5.95;;;12.20;99.90;;;;;;5005133;28;20026;-71
2023/03/30 07:30:01;;;;;;;16.30;5.25;;;12.30;99.90;;;;;;5005151;28;20046;-70
2023/03/30 07:32:27;;;;;;;16.23;5.10;;;12.30;99.90;;;;;;5005301;28;20109;-71
2023/03/30 07:34:53;;;;;;;10.18;5.32;;;12.30;99.90;;;;;;5005362;28;20026;-69
2023/03/30 07:37:18;;;;;;;10.63;5.30;;;12.40;99.90;;;;;;5005382;28;20023;-70
2023/03/30 07:39:44;;;;;;;10.65;5.15;;;12.40;99.90;;;;;;5007368;28;20505;-70
2023/03/30 07:42:10;;;;;;;14.80;5.60;;;12.40;99.90;;;;;;5005174;28;20034;-70
2023/03/30 07:44:36;;;;;;;9.00;5.22;;;12.40;99.90;;;;;;5016946;28;20038;-69
2023/03/30 07:47:05;;;;;;;11.93;5.43;;;12.50;99.90;;;;;;5005277;28;20027;-70
2023/03/30 07:49:31;;;;;;;20.70;5.30;;;12.60;99.90;;;;;;5003860;28;20034;-69
2023/03/30 07:51:57;;;;;;;10.82;4.80;;;12.70;99.90;;;;;;5003640;28;20045;-69
2023/03/30 07:54:22;;;;;;;20.67;4.97;;;12.80;99.90;;;;;;5005152;28;20026;-70
2023/03/30 07:56:54;;;;;;;14.68;4.88;;;12.90;99.90;;;;;;5004850;28;20069;-68
2023/03/30 07:59:21;;;;;;;8.00;4.35;;;13.00;99.90;;;;;;5005162;28;20054;-71
2023/03/30 08:01:49;;;;;;;10.18;4.75;;;13.10;99.90;;;;;;5006053;28;20104;-69
2023/03/30 08:04:15;;;;;;;14.18;4.57;;;13.40;99.90;;;;;;5009254;28;20026;-69
2023/03/30 08:06:41;;;;;;;9.05;4.55;;;13.70;99.90;;;;;;5014757;28;20030;-71
2023/03/30 08:09:07;;;;;;;10.50;4.35;;;14.00;99.90;;;;;;5019062;28;20050;-70
2023/03/30 08:11:34;;;;;;;10.60;4.05;;;14.40;99.90;;;;;;5015739;28;20029;-67
2023/03/30 08:14:01;;;;;;;10.23;4.07;;;14.50;99.90;;;;;;5028491;28;20025;-68
2023/03/30 08:16:27;;;;;;;13.75;4.00;;;14.40;99.90;;;;;;5021819;28;20030;-68
2023/03/30 08:18:53;;;;;;;10.82;4.35;;;14.40;99.90;;;;;;5016364;28;20026;-70
2023/03/30 08:21:20;;;;;;;9.98;4.75;;;14.30;99.90;;;;;;5024657;28;20014;-71
2023/03/30 08:23:46;;;;;;;18.52;7.82;;;14.10;99.90;;;;;;5022281;28;20391;-71
2023/03/30 08:26:12;;;;;;;11.95;5.05;;;14.10;99.90;;;;;;5018804;28;20038;-69
2023/03/30 08:28:38;;;;;;;8.77;4.03;;;14.00;99.90;;;;;;5034975;28;20081;-69
2023/03/30 08:31:09;;;;;;;12.65;4.63;;;13.80;99.90;;;;;;5017801;28;20110;-68
2023/03/30 08:33:35;;;;;;;15.95;4.05;;;13.70;99.90;;;;;;5025126;28;20026;-69
2023/03/30 08:36:01;;;;;;;11.57;3.88;;;13.60;99.90;;;;;;5017318;28;20029;-68
2023/03/30 08:38:28;;;;;;;9.45;3.85;;;13.60;99.90;;;;;;5024239;28;20034;-69
2023/03/30 08:40:54;;;;;;;9.00;4.15;;;13.60;99.90;;;;;;5008611;28;21462;-69
2023/03/30 08:43:51;;;;;;;10.35;3.90;;;13.70;99.90;;;;;;5018921;28;20046;-69
2023/03/30 08:46:18;;;;;;;13.35;4.00;;;13.70;99.90;;;;;;5012950;28;20046;-68
2023/03/30 08:48:46;;;;;;;12.63;4.63;;;13.80;99.90;;;;;;5017083;28;20426;-70
2023/03/30 08:51:27;;;;;;;13.52;4.43;;;13.90;99.90;;;;;;5028337;28;20021;-69
2023/03/30 08:54:02;;;;;;;10.20;4.65;;;14.00;99.90;;;;;;5013609;28;20034;-69
2023/03/30 08:56:41;;;;;;;11.50;3.67;;;14.20;99.90;;;;;;5020217;28;20038;-68
2023/03/30 08:59:28;;;;;;;10.68;3.80;;;14.20;99.90;;;;;;5021714;28;20036;-69
2023/03/30 09:02:00;;;;;;;9.95;3.55;;;14.50;99.90;;;;;;5015000;28;20042;-71
2023/03/30 09:04:56;;;;;;;11.48;3.80;;;14.80;99.90;;;;;;5022777;28;20110;-68
2023/03/30 09:07:58;;;;;;;7.97;3.60;;;15.10;99.90;;;;;;5014339;28;20088;-70
2023/03/30 09:10:28;;;;;;;7.97;3.65;;;15.40;99.90;;;;;;5020676;28;20038;-71
2023/03/30 09:13:01;;;;;;;8.10;3.28;;;15.60;99.90;;;;;;5021207;28;20030;-70
2023/03/30 09:15:35;;;;;;;10.13;3.22;;;15.90;99.90;;;;;;5018718;28;20057;-70
2023/03/30 09:18:23;;;;;;;7.38;3.13;;;16.10;99.90;;;;;;5027595;28;20026;-70
2023/03/30 09:20:51;;;;;;;7.68;2.60;;;16.30;99.90;;;;;;5026181;28;20026;-72
2023/03/30 09:23:17;;;;;;;10.25;2.90;;;16.20;99.90;;;;;;5017780;28;20105;-71
2023/03/30 09:25:52;;;;;;;6.68;2.67;;;16.30;99.90;;;;;;5025244;28;20033;-71
2023/03/30 09:28:49;;;;;;;9.18;3.20;;;16.40;99.90;;;;;;5015446;28;20083;-69
2023/03/30 09:31:26;;;;;;;10.07;2.60;;;16.30;99.90;;;;;;5016534;28;20026;-71
2023/03/30 09:33:56;;;;;;;9.95;2.60;;;16.20;99.90;;;;;;5017500;28;20022;-69
2023/03/30 09:36:30;;;;;;;11.32;2.60;;;16.10;99.90;;;;;;5027036;28;20033;-73
2023/03/30 09:38:56;;;;;;;9.40;2.60;;;16.40;99.90;;;;;;5010195;28;20120;-71
2023/03/30 09:41:34;;;;;;;11.55;2.67;;;16.60;99.90;;;;;;5016009;28;20025;-71
2023/03/30 09:44:01;;;;;;;11.23;2.83;;;16.60;99.90;;;;;;5020702;28;20034;-69
2023/03/30 09:46:27;;;;;;;9.75;3.05;;;16.50;99.90;;;;;;5013775;28;20037;-69
2023/03/30 09:48:52;;;;;;;9.32;2.50;;;16.40;99.90;;;;;;5007110;28;20082;-71
2023/03/30 09:51:20;;;;;;;6.53;2.25;;;16.40;99.90;;;;;;5022216;28;20026;-71
2023/03/30 09:53:48;;;;;;;9.90;2.22;;;16.30;99.90;;;;;;5026177;28;20030;-69
2023/03/30 09:56:44;;;;;;;10.63;2.35;;;16.50;99.90;;;;;;5026509;28;20026;-71
2023/03/30 09:59:20;;;;;;;9.68;2.42;;;16.40;99.90;;;;;;5026758;28;20073;-73
2023/03/30 10:01:46;;;;;;;9.18;2.50;;;16.30;99.90;;;;;;5025463;28;20037;-73
2023/03/30 10:04:12;;;;;;;10.73;2.53;;;16.20;99.90;;;;;;5041520;28;20072;-76
2023/03/30 10:06:48;;;;;;;11.63;2.40;;;16.40;99.90;;;;;;5021263;28;20052;-71
2023/03/30 10:09:16;;;;;;;12.25;2.92;;;16.70;99.90;;;;;;5005378;28;20073;-74
2023/03/30 10:11:48;;;;;;;10.98;3.03;;;16.90;99.90;;;;;;5006866;28;20018;-71
2023/03/30 10:14:37;;;;;;;13.25;3.05;;;17.00;99.90;;;;;;5021927;28;20057;-71
2023/03/30 10:17:04;;;;;;;15.48;3.88;;;17.20;99.90;;;;;;5003845;28;20046;-71
2023/03/30 10:19:33;;;;;;;11.30;2.35;;;17.10;99.90;;;;;;5006843;28;20033;-72
2023/03/30 10:22:03;;;;;;;8.52;2.20;;;16.90;99.90;;;;;;5006767;28;20046;-71
2023/03/30 10:24:31;;;;;;;13.85;1.95;;;16.60;99.90;;;;;;5006198;28;20027;-74
2023/03/30 10:27:02;;;;;;;15.43;2.45;;;16.20;99.90;;;;;;5005693;28;20033;-73
2023/03/30 10:29:29;;;;;;;12.35;2.53;;;15.80;99.90;;;;;;5006487;28;20042;-71
2023/03/30 10:32:13;;;;;;;13.60;2.65;;;15.40;99.90;;;;;;5021687;28;20034;-69
2023/03/30 10:34:42;;;;;;;12.30;2.53;;;15.30;99.90;;;;;;5005244;28;20026;-69
2023/03/30 10:37:17;;;;;;;9.10;2.17;;;15.30;99.90;;;;;;5005317;28;20030;-71
2023/03/30 10:39:45;;;;;;;11.18;2.53;;;15.30;99.90;;;;;;5006411;28;20035;-70
2023/03/30 10:42:16;;;;;;;9.75;2.50;;;15.30;99.90;;;;;;5005060;28;20057;-72
2023/03/30 10:44:49;;;;;;;15.02;2.50;;;15.40;99.90;;;;;;5006352;28;20033;-70
2023/03/30 10:47:45;;;;;;;15.27;2.25;;;15.60;99.90;;;;;;5006521;28;20026;-72
2023/03/30 10:50:18;;;;;;;10.75;2.20;;;15.70;99.90;;;;;;5006099;28;20537;-72
2023/03/30 10:52:57;;;;;;;7.20;2.38;;;15.80;99.90;;;;;;5006065;28;20399;-70
2023/03/30 10:55:45;;;;;;;8.48;2.17;;;15.80;99.90;;;;;;5004749;28;20077;-69
2023/03/30 10:58:20;;;;;;;12.00;2.80;;;15.70;99.90;;;;;;5021555;28;20459;-72
2023/03/30 11:00:48;;;;;;;10.40;2.28;;;15.50;99.90;;;;;;5006122;28;20029;-72
2023/03/30 11:03:21;;;;;;;8.43;1.80;;;15.20;99.90;;;;;;5004701;28;20125;-70
2023/03/30 11:05:51;;;;;;;9.27;1.27;;;15.00;99.90;;;;;;5005959;28;20018;-72
2023/03/30 11:08:27;;;;;;;11.20;2.30;;;14.50;99.90;;;;;;5005797;28;20105;-71
2023/03/30 11:10:56;;;;;;;12.32;1.90;;;14.30;99.90;;;;;;5005541;28;20023;-72
2023/03/30 11:13:27;;;;;;;10.13;2.20;;;14.00;99.90;;;;;;5005995;28;20030;-73
2023/03/30 11:15:55;;;;;;;6.53;2.03;;;14.10;99.90;;;;;;5005812;28;20034;-70
2023/03/30 11:18:33;;;;;;;12.25;2.78;;;14.40;99.90;;;;;;5005678;28;20033;-73
2023/03/30 11:21:04;;;;;;;13.23;3.08;;;14.70;99.90;;;;;;5005700;28;20026;-70
2023/03/30 11:23:53;;;;;;;11.52;2.55;;;15.20;99.90;;;;;;5005687;28;20116;-73
2023/03/30 11:26:28;;;;;;;13.15;2.80;;;15.50;99.90;;;;;;5020775;28;20058;-73
2023/03/30 11:29:20;;;;;;;14.93;3.88;;;15.60;99.90;;;;;;5004588;28;20403;-71
2023/03/30 11:32:15;;;;;;;12.95;3.33;;;15.80;99.90;;;;;;5005354;28;20033;-75
2023/03/30 11:34:53;;;;;;;11.48;2.75;;;15.70;99.90;;;;;;5005415;28;20479;-70
2023/03/30 11:37:33;;;;;;;14.02;2.95;;;15.60;99.90;;;;;;5005268;28;20023;-75
2023/03/30 11:40:12;;;;;;;15.95;3.15;;;15.40;99.90;;;;;;5005570;28;20034;-70
2023/03/30 11:42:38;;;;;;;19.40;3.65;;;15.30;99.90;;;;;;5019657;28;20038;-71
2023/03/30 11:45:33;;;;;;;19.55;3.38;;;15.10;99.90;;;;;;5007767;28;20037;-72
2023/03/30 11:48:26;;;;;;;14.52;2.95;;;14.80;99.90;;;;;;5017197;28;20025;-70
2023/03/30 11:50:58;;;;;;;17.02;3.33;;;14.80;99.90;;;;;;5018328;28;20034;-72
2023/03/30 11:54:02;;;;;;;17.08;3.05;;;14.90;99.90;;;;;;5018717;28;20489;-71
2023/03/30 11:56:45;;;;;;;18.40;3.55;;;15.30;99.90;;;;;;5004808;28;20022;-70
2023/03/30 11:59:34;;;;;;;17.42;2.92;;;15.60;99.90;;;;;;5005358;28;20480;-71
2023/03/30 12:02:18;;;;;;;14.05;3.30;;;15.90;99.90;;;;;;5005230;28;20034;-68
2023/03/30 12:04:49;;;;;;;12.32;2.60;;;16.20;99.90;;;;;;5020385;28;20030;-70
2023/03/30 12:07:47;;;;;;;18.45;3.13;;;16.40;99.90;;;;;;5004957;28;20122;-70
2023/03/30 12:10:43;;;;;;;16.15;2.95;;;16.40;99.90;;;;;;5008372;28;20113;-74
2023/03/30 12:13:20;;;;;;;7.82;2.30;;;16.30;99.90;;;;;;5011149;28;20038;-71
2023/03/30 12:15:45;;;;;;;21.00;2.90;;;16.20;99.90;;;;;;5023852;28;20022;-71
2023/03/30 12:18:41;;;;;;;14.82;2.78;;;16.00;99.90;;;;;;5024926;28;20050;-71
2023/03/30 12:21:21;;;;;;;14.20;3.25;;;15.70;99.90;;;;;;5010987;28;20054;-72
2023/03/30 12:24:16;;;;;;;17.00;2.55;;;15.50;99.90;;;;;;5021081;28;20037;-71
2023/03/30 12:26:42;;;;;;;14.43;2.45;;;15.50;99.90;;;;;;5008455;28;20046;-70
2023/03/30 12:29:16;;;;;;;19.73;2.58;;;16.00;99.90;;;;;;5022372;28;20026;-71
2023/03/30 12:32:02;;;;;;;10.00;1.85;;;16.20;99.90;;;;;;5010855;28;20030;-67
2023/03/30 12:34:35;;;;;;;7.90;1.80;;;16.00;99.90;;;;;;5015149;28;20383;-70
2023/03/30 12:37:25;;;;;;;13.68;1.98;;;15.70;99.90;;;;;;5016357;28;20036;-73
2023/03/30 12:40:07;;;;;;;14.15;2.03;;;15.70;99.90;;;;;;5016540;28;20033;-71
2023/03/30 12:42:38;;;;;;;9.68;1.75;;;15.80;99.90;;;;;;5005971;28;20050;-70
2023/03/30 12:45:30;;;;;;;9.43;2.22;;;16.00;99.90;;;;;;5021558;28;20018;-70
2023/03/30 12:48:18;;;;;;;9.82;1.95;;;16.20;99.90;;;;;;5008164;28;20050;-73
2023/03/30 12:51:15;;;;;;;12.35;2.15;;;16.60;99.90;;;;;;5025622;28;20037;-72
2023/03/30 12:54:02;;;;;;;17.60;2.20;;;16.90;99.90;;;;;;5008422;28;20044;-71
2023/03/30 12:56:40;;;;;;;8.52;1.65;;;16.90;99.90;;;;;;5019337;28;20034;-70
2023/03/30 12:59:24;;;;;;;9.93;1.88;;;16.70;99.90;;;;;;5008206;28;20464;-73
2023/03/30 13:02:10;;;;;;;10.65;1.95;;;16.40;99.90;;;;;;5021062;28;20060;-69